createdAt,value
2022-09-13T00:00:39.620Z,15.6
2022-09-13T00:10:39.802Z,15.7
2022-09-13T00:20:40.622Z,15.8
2022-09-13T00:30:40.987Z,15.8
2022-09-13T00:40:41.453Z,15.7
2022-09-13T00:50:42.240Z,15.7
2022-09-13T01:00:43.131Z,15.7
2022-09-13T01:10:43.435Z,15.8
2022-09-13T01:20:43.801Z,15.9
2022-09-13T01:30:44.049Z,15.9
2022-09-13T01:40:44.789Z,15.9
2022-09-13T01:50:45.475Z,16
2022-09-13T02:10:46.306Z,16
2022-09-13T02:20:46.883Z,16.1
2022-09-13T02:30:47.853Z,16.2
2022-09-13T02:40:48.091Z,16.2
2022-09-13T02:50:48.424Z,16.1
2022-09-13T03:00:49.245Z,16
2022-09-13T03:10:49.314Z,16
2022-09-13T03:20:49.907Z,16.1
2022-09-13T03:30:50.130Z,16.2
2022-09-13T03:40:50.690Z,16.2
2022-09-13T03:50:50.820Z,16.2
2022-09-13T04:00:51.167Z,16.3
2022-09-13T04:10:51.702Z,16.3
2022-09-13T04:20:52.358Z,16.4
2022-09-13T04:30:53.346Z,16.6
2022-09-13T04:40:54.291Z,16.5
2022-09-13T04:50:55.052Z,16.5
2022-09-13T05:10:55.420Z,16.6
2022-09-13T05:20:56.455Z,16.6
2022-09-13T05:30:56.689Z,16.7
2022-09-13T05:40:56.751Z,16.9
2022-09-13T05:50:58.426Z,17.2
2022-09-13T06:10:58.290Z,17.4
2022-09-13T06:20:59.248Z,17.5
2022-09-13T06:31:00.295Z,17.6
2022-09-13T06:41:00.707Z,17.8
2022-09-13T06:51:00.839Z,17.8
2022-09-13T07:01:01.263Z,17.9
2022-09-13T07:11:01.656Z,17.9
2022-09-13T07:21:02.154Z,18
2022-09-13T07:31:02.283Z,18.3
2022-09-13T07:51:03.390Z,19.1
2022-09-13T08:01:03.811Z,19.4
2022-09-13T08:11:04.469Z,19.6
2022-09-13T08:21:05.443Z,19.8
2022-09-13T08:41:06.606Z,20.6
2022-09-13T09:11:08.047Z,21.6
2022-09-13T09:21:08.360Z,22.2
2022-09-13T09:31:08.627Z,22.7
2022-09-13T09:41:08.888Z,23.1
2022-09-13T09:51:09.940Z,22.8
2022-09-13T10:11:10.710Z,23
2022-09-13T10:21:11.677Z,22.9
2022-09-13T10:31:16.402Z,22.7
2022-09-13T10:41:13.240Z,22.8
2022-09-13T11:01:14.386Z,22.8
2022-09-13T11:21:15.777Z,23
2022-09-13T11:31:15.903Z,22.8
2022-09-13T11:41:16.742Z,22.8
2022-09-13T11:51:17.593Z,22.9
2022-09-13T12:01:18.035Z,23.1
2022-09-13T12:21:19.417Z,22.9
2022-09-13T12:31:20.075Z,22.8
2022-09-13T12:41:20.444Z,23.5
2022-09-13T12:51:21.163Z,23.5
2022-09-13T13:01:22.218Z,23.1
2022-09-13T13:11:22.626Z,23
2022-09-13T13:21:23.128Z,23.2
2022-09-13T13:31:24.188Z,23.7
2022-09-13T14:01:25.726Z,24.1
2022-09-13T14:11:26.683Z,23.7
2022-09-13T14:21:27.431Z,23.5
2022-09-13T14:31:27.839Z,23.6
2022-09-13T15:21:29.593Z,23
2022-09-13T15:41:31.561Z,23.1
2022-09-13T15:51:35.604Z,23.1
2022-09-13T16:01:33.215Z,23.1
2022-09-13T16:11:34.111Z,23
2022-09-13T16:21:35.197Z,22.8
2022-09-13T16:31:35.544Z,22.7
2022-09-13T16:41:35.721Z,22.5
2022-09-13T16:51:36.594Z,22.3
2022-09-13T17:01:37.571Z,22.1
2022-09-13T17:11:37.408Z,22
2022-09-13T17:21:38.340Z,21.8
2022-09-13T17:31:39.380Z,21.6
2022-09-13T17:41:39.888Z,21.4
2022-09-13T17:51:40.604Z,21.1
2022-09-13T18:01:41.597Z,20.9
2022-09-13T18:11:41.767Z,20.8
2022-09-13T18:21:42.237Z,20.8
2022-09-13T18:31:42.441Z,20.7
2022-09-13T18:41:43.322Z,20.5
2022-09-13T18:51:44.032Z,20.4
2022-09-13T19:01:45.017Z,20.2
2022-09-13T19:11:47.154Z,19.9
2022-09-13T19:21:45.728Z,19.7
2022-09-13T19:31:46.181Z,19.5
2022-09-13T19:41:46.628Z,19.3
2022-09-13T19:51:51.398Z,19.2
2022-09-13T20:01:47.899Z,19.1
2022-09-13T20:21:49.159Z,18.9
2022-09-13T20:31:49.536Z,18.9
2022-09-13T20:41:50.307Z,18.8
2022-09-13T20:51:50.323Z,18.6
2022-09-13T21:01:50.683Z,18.5
2022-09-13T21:11:51.376Z,18.4
2022-09-13T21:21:51.671Z,18.2
2022-09-13T21:31:51.757Z,18.2
2022-09-13T21:41:51.959Z,18.1
2022-09-13T21:51:52.565Z,17.9
2022-09-13T22:01:53.587Z,17.9
2022-09-13T22:11:53.866Z,17.8
2022-09-13T22:21:54.624Z,17.7
2022-09-13T22:31:55.550Z,17.7
2022-09-13T22:41:56.442Z,17.6
2022-09-13T22:51:57.018Z,17.5
2022-09-13T23:01:57.980Z,17.4
2022-09-13T23:11:58.234Z,17.4
2022-09-13T23:21:59.124Z,17.3
2022-09-13T23:31:59.819Z,17.2
2022-09-13T23:42:00.612Z,17.2
2022-09-13T23:52:00.882Z,17.1
